sensor_id;sensor_type;location;lat;lon;timestamp;P1;durP1;ratioP1;P2;durP2;ratioP2
29184;SDS011;16233;47.964;-3.842;2022-09-03T00:02:02;192.38;;;31.27;;
29184;SDS011;16233;47.964;-3.842;2022-09-03T00:04:07;138.77;;;31.83;;
29184;SDS011;16233;47.964;-3.842;2022-09-03T00:06:15;308.80;;;40.33;;
29184;SDS011;16233;47.964;-3.842;2022-09-03T00:08:24;470.00;;;50.47;;
29184;SDS011;16233;47.964;-3.842;2022-09-03T00:10:30;274.83;;;37.60;;
29184;SDS011;16233;47.964;-3.842;2022-09-03T00:12:39;336.00;;;42.38;;
29184;SDS011;16233;47.964;-3.842;2022-09-03T00:14:45;190.35;;;33.67;;
29184;SDS011;16233;47.964;-3.842;2022-09-03T00:16:53;165.25;;;32.85;;
29184;SDS011;16233;47.964;-3.842;2022-09-03T00:18:58;205.60;;;33.65;;
29184;SDS011;16233;47.964;-3.842;2022-09-03T00:21:02;174.68;;;30.45;;
29184;SDS011;16233;47.964;-3.842;2022-09-03T00:23:09;159.05;;;30.88;;
29184;SDS011;16233;47.964;-3.842;2022-09-03T00:25:16;98.97;;;27.58;;
29184;SDS011;16233;47.964;-3.842;2022-09-03T00:27:21;261.58;;;36.97;;
29184;SDS011;16233;47.964;-3.842;2022-09-03T00:29:26;324.25;;;39.67;;
29184;SDS011;16233;47.964;-3.842;2022-09-03T00:31:32;480.88;;;47.15;;
29184;SDS011;16233;47.964;-3.842;2022-09-03T00:33:39;96.57;;;28.45;;
29184;SDS011;16233;47.964;-3.842;2022-09-03T00:35:45;104.88;;;27.65;;
29184;SDS011;16233;47.964;-3.842;2022-09-03T00:37:50;195.98;;;35.17;;
29184;SDS011;16233;47.964;-3.842;2022-09-03T00:39:51;105.95;;;27.95;;
29184;SDS011;16233;47.964;-3.842;2022-09-03T00:42:00;292.58;;;37.00;;
29184;SDS011;16233;47.964;-3.842;2022-09-03T00:44:18;297.95;;;37.05;;
29184;SDS011;16233;47.964;-3.842;2022-09-03T00:46:34;296.50;;;34.78;;
29184;SDS011;16233;47.964;-3.842;2022-09-03T00:48:46;488.48;;;40.47;;
29184;SDS011;16233;47.964;-3.842;2022-09-03T00:51:00;337.25;;;36.33;;
29184;SDS011;16233;47.964;-3.842;2022-09-03T00:53:10;620.67;;;50.17;;
29184;SDS011;16233;47.964;-3.842;2022-09-03T00:55:21;307.63;;;35.83;;
29184;SDS011;16233;47.964;-3.842;2022-09-03T00:57:34;324.48;;;32.10;;
29184;SDS011;16233;47.964;-3.842;2022-09-03T00:59:47;202.75;;;29.25;;
29184;SDS011;16233;47.964;-3.842;2022-09-03T01:02:00;246.57;;;32.13;;
29184;SDS011;16233;47.964;-3.842;2022-09-03T01:04:17;257.02;;;33.05;;
29184;SDS011;16233;47.964;-3.842;2022-09-03T01:06:28;402.58;;;39.65;;
29184;SDS011;16233;47.964;-3.842;2022-09-03T01:08:45;467.63;;;42.83;;
29184;SDS011;16233;47.964;-3.842;2022-09-03T01:11:01;176.65;;;30.45;;
29184;SDS011;16233;47.964;-3.842;2022-09-03T01:13:12;138.32;;;25.52;;
29184;SDS011;16233;47.964;-3.842;2022-09-03T01:15:20;86.97;;;25.73;;
29184;SDS011;16233;47.964;-3.842;2022-09-03T01:17:29;318.80;;;36.47;;
29184;SDS011;16233;47.964;-3.842;2022-09-03T01:22:12;98.43;;;23.98;;
29184;SDS011;16233;47.964;-3.842;2022-09-03T01:26:58;182.32;;;30.85;;
29184;SDS011;16233;47.964;-3.842;2022-09-03T01:29:11;257.83;;;35.28;;
29184;SDS011;16233;47.964;-3.842;2022-09-03T01:31:18;60.55;;;24.77;;
29184;SDS011;16233;47.964;-3.842;2022-09-03T01:33:29;56.30;;;23.40;;
29184;SDS011;16233;47.964;-3.842;2022-09-03T01:35:35;147.45;;;29.40;;
29184;SDS011;16233;47.964;-3.842;2022-09-03T01:37:44;71.22;;;23.45;;
29184;SDS011;16233;47.964;-3.842;2022-09-03T01:39:56;81.43;;;24.73;;
29184;SDS011;16233;47.964;-3.842;2022-09-03T01:42:05;339.65;;;37.28;;
29184;SDS011;16233;47.964;-3.842;2022-09-03T01:44:16;380.25;;;40.95;;
29184;SDS011;16233;47.964;-3.842;2022-09-03T01:46:25;250.02;;;34.22;;
29184;SDS011;16233;47.964;-3.842;2022-09-03T01:48:38;72.78;;;25.45;;
29184;SDS011;16233;47.964;-3.842;2022-09-03T01:50:43;141.60;;;28.25;;
29184;SDS011;16233;47.964;-3.842;2022-09-03T01:52:50;262.83;;;35.67;;
29184;SDS011;16233;47.964;-3.842;2022-09-03T01:54:58;120.85;;;26.15;;
29184;SDS011;16233;47.964;-3.842;2022-09-03T01:57:13;179.35;;;31.50;;
29184;SDS011;16233;47.964;-3.842;2022-09-03T01:59:28;191.20;;;31.25;;
29184;SDS011;16233;47.964;-3.842;2022-09-03T02:01:32;215.98;;;34.17;;
29184;SDS011;16233;47.964;-3.842;2022-09-03T02:03:37;89.07;;;27.25;;
29184;SDS011;16233;47.964;-3.842;2022-09-03T02:05:41;91.65;;;28.73;;
29184;SDS011;16233;47.964;-3.842;2022-09-03T02:07:43;78.35;;;27.38;;
29184;SDS011;16233;47.964;-3.842;2022-09-03T02:09:45;105.15;;;29.00;;
29184;SDS011;16233;47.964;-3.842;2022-09-03T02:11:48;110.47;;;30.08;;
29184;SDS011;16233;47.964;-3.842;2022-09-03T02:13:53;113.30;;;28.67;;
29184;SDS011;16233;47.964;-3.842;2022-09-03T02:15:58;116.32;;;28.85;;
29184;SDS011;16233;47.964;-3.842;2022-09-03T02:18:03;101.90;;;27.88;;
29184;SDS011;16233;47.964;-3.842;2022-09-03T02:20:08;85.70;;;26.33;;
29184;SDS011;16233;47.964;-3.842;2022-09-03T02:22:11;90.38;;;26.33;;
29184;SDS011;16233;47.964;-3.842;2022-09-03T02:24:12;92.55;;;25.45;;
29184;SDS011;16233;47.964;-3.842;2022-09-03T02:26:15;81.82;;;26.10;;
29184;SDS011;16233;47.964;-3.842;2022-09-03T02:28:18;82.40;;;25.77;;
29184;SDS011;16233;47.964;-3.842;2022-09-03T02:30:19;76.25;;;25.13;;
29184;SDS011;16233;47.964;-3.842;2022-09-03T02:32:21;77.70;;;26.30;;
29184;SDS011;16233;47.964;-3.842;2022-09-03T02:34:22;71.85;;;25.65;;
29184;SDS011;16233;47.964;-3.842;2022-09-03T02:36:24;80.35;;;26.02;;
29184;SDS011;16233;47.964;-3.842;2022-09-03T02:38:27;74.22;;;25.00;;
29184;SDS011;16233;47.964;-3.842;2022-09-03T02:40:28;84.00;;;27.00;;
29184;SDS011;16233;47.964;-3.842;2022-09-03T02:42:29;65.45;;;25.73;;
29184;SDS011;16233;47.964;-3.842;2022-09-03T02:44:30;69.53;;;26.27;;
29184;SDS011;16233;47.964;-3.842;2022-09-03T02:46:37;70.45;;;26.23;;
29184;SDS011;16233;47.964;-3.842;2022-09-03T02:48:41;76.57;;;26.60;;
29184;SDS011;16233;47.964;-3.842;2022-09-03T02:50:42;80.32;;;27.73;;
29184;SDS011;16233;47.964;-3.842;2022-09-03T02:52:43;67.80;;;27.50;;
29184;SDS011;16233;47.964;-3.842;2022-09-03T02:54:44;77.75;;;26.90;;
29184;SDS011;16233;47.964;-3.842;2022-09-03T02:56:45;80.53;;;27.48;;
29184;SDS011;16233;47.964;-3.842;2022-09-03T02:58:46;72.10;;;26.85;;
29184;SDS011;16233;47.964;-3.842;2022-09-03T03:00:47;72.65;;;27.63;;
29184;SDS011;16233;47.964;-3.842;2022-09-03T03:02:48;70.32;;;27.13;;
29184;SDS011;16233;47.964;-3.842;2022-09-03T03:04:50;63.75;;;25.50;;
29184;SDS011;16233;47.964;-3.842;2022-09-03T03:06:51;79.50;;;28.02;;
29184;SDS011;16233;47.964;-3.842;2022-09-03T03:08:52;82.85;;;28.30;;
29184;SDS011;16233;47.964;-3.842;2022-09-03T03:10:54;91.68;;;27.90;;
29184;SDS011;16233;47.964;-3.842;2022-09-03T03:12:56;83.72;;;26.60;;
29184;SDS011;16233;47.964;-3.842;2022-09-03T03:14:57;62.42;;;24.20;;
29184;SDS011;16233;47.964;-3.842;2022-09-03T03:16:58;80.53;;;27.35;;
29184;SDS011;16233;47.964;-3.842;2022-09-03T03:18:59;71.57;;;26.67;;
29184;SDS011;16233;47.964;-3.842;2022-09-03T03:21:04;73.55;;;28.35;;
29184;SDS011;16233;47.964;-3.842;2022-09-03T03:23:06;57.58;;;23.67;;
29184;SDS011;16233;47.964;-3.842;2022-09-03T03:25:08;64.07;;;23.90;;
29184;SDS011;16233;47.964;-3.842;2022-09-03T03:27:09;61.20;;;25.23;;
29184;SDS011;16233;47.964;-3.842;2022-09-03T03:29:13;84.50;;;27.65;;
29184;SDS011;16233;47.964;-3.842;2022-09-03T03:31:16;71.05;;;25.75;;
29184;SDS011;16233;47.964;-3.842;2022-09-03T03:33:18;80.47;;;27.25;;
29184;SDS011;16233;47.964;-3.842;2022-09-03T03:35:19;78.28;;;27.02;;
29184;SDS011;16233;47.964;-3.842;2022-09-03T03:37:22;70.35;;;24.55;;
29184;SDS011;16233;47.964;-3.842;2022-09-03T03:39:23;62.28;;;24.98;;
29184;SDS011;16233;47.964;-3.842;2022-09-03T03:41:24;79.60;;;27.23;;
29184;SDS011;16233;47.964;-3.842;2022-09-03T03:43:26;150.00;;;31.38;;
29184;SDS011;16233;47.964;-3.842;2022-09-03T03:45:27;144.38;;;32.15;;
29184;SDS011;16233;47.964;-3.842;2022-09-03T03:47:28;83.85;;;30.17;;
29184;SDS011;16233;47.964;-3.842;2022-09-03T03:49:29;80.60;;;29.65;;
29184;SDS011;16233;47.964;-3.842;2022-09-03T03:51:30;73.30;;;28.25;;
29184;SDS011;16233;47.964;-3.842;2022-09-03T03:53:33;72.50;;;27.65;;
29184;SDS011;16233;47.964;-3.842;2022-09-03T03:55:35;82.18;;;29.70;;
29184;SDS011;16233;47.964;-3.842;2022-09-03T03:57:36;69.07;;;27.85;;
29184;SDS011;16233;47.964;-3.842;2022-09-03T03:59:37;81.20;;;30.58;;
29184;SDS011;16233;47.964;-3.842;2022-09-03T04:01:38;79.10;;;28.55;;
29184;SDS011;16233;47.964;-3.842;2022-09-03T04:03:39;102.72;;;28.35;;
29184;SDS011;16233;47.964;-3.842;2022-09-03T04:05:41;65.15;;;26.77;;
29184;SDS011;16233;47.964;-3.842;2022-09-03T04:07:42;60.90;;;26.08;;
29184;SDS011;16233;47.964;-3.842;2022-09-03T04:09:44;64.53;;;26.77;;
29184;SDS011;16233;47.964;-3.842;2022-09-03T04:11:45;68.25;;;28.10;;
29184;SDS011;16233;47.964;-3.842;2022-09-03T04:13:46;70.45;;;29.13;;
29184;SDS011;16233;47.964;-3.842;2022-09-03T04:15:48;73.13;;;29.65;;
29184;SDS011;16233;47.964;-3.842;2022-09-03T04:17:49;68.55;;;29.45;;
29184;SDS011;16233;47.964;-3.842;2022-09-03T04:19:53;86.75;;;30.80;;
29184;SDS011;16233;47.964;-3.842;2022-09-03T04:21:54;83.40;;;30.77;;
29184;SDS011;16233;47.964;-3.842;2022-09-03T04:23:55;70.35;;;28.38;;
29184;SDS011;16233;47.964;-3.842;2022-09-03T04:25:58;68.93;;;27.73;;
29184;SDS011;16233;47.964;-3.842;2022-09-03T04:27:59;84.90;;;29.75;;
29184;SDS011;16233;47.964;-3.842;2022-09-03T04:30:01;67.93;;;28.30;;
29184;SDS011;16233;47.964;-3.842;2022-09-03T04:32:02;70.38;;;28.27;;
29184;SDS011;16233;47.964;-3.842;2022-09-03T04:34:04;69.60;;;27.90;;
29184;SDS011;16233;47.964;-3.842;2022-09-03T04:36:05;85.30;;;28.85;;
29184;SDS011;16233;47.964;-3.842;2022-09-03T04:38:08;83.18;;;29.92;;
29184;SDS011;16233;47.964;-3.842;2022-09-03T04:40:09;81.05;;;28.77;;
29184;SDS011;16233;47.964;-3.842;2022-09-03T04:42:12;62.15;;;27.25;;
29184;SDS011;16233;47.964;-3.842;2022-09-03T04:44:13;75.72;;;27.77;;
29184;SDS011;16233;47.964;-3.842;2022-09-03T04:46:14;74.00;;;28.27;;
29184;SDS011;16233;47.964;-3.842;2022-09-03T04:48:15;66.22;;;26.90;;
29184;SDS011;16233;47.964;-3.842;2022-09-03T04:50:16;68.45;;;26.63;;
29184;SDS011;16233;47.964;-3.842;2022-09-03T04:52:17;78.93;;;29.45;;
29184;SDS011;16233;47.964;-3.842;2022-09-03T04:54:18;64.75;;;25.92;;
29184;SDS011;16233;47.964;-3.842;2022-09-03T04:56:19;62.00;;;26.27;;
29184;SDS011;16233;47.964;-3.842;2022-09-03T04:58:23;51.00;;;24.63;;
29184;SDS011;16233;47.964;-3.842;2022-09-03T05:00:24;54.00;;;26.75;;
29184;SDS011;16233;47.964;-3.842;2022-09-03T05:02:25;54.63;;;26.48;;
29184;SDS011;16233;47.964;-3.842;2022-09-03T05:04:26;59.47;;;27.38;;
29184;SDS011;16233;47.964;-3.842;2022-09-03T05:06:27;63.20;;;26.83;;
29184;SDS011;16233;47.964;-3.842;2022-09-03T05:08:29;58.72;;;26.40;;
29184;SDS011;16233;47.964;-3.842;2022-09-03T05:10:31;57.80;;;25.65;;
29184;SDS011;16233;47.964;-3.842;2022-09-03T05:12:32;46.80;;;23.67;;
29184;SDS011;16233;47.964;-3.842;2022-09-03T05:14:34;51.35;;;23.80;;
29184;SDS011;16233;47.964;-3.842;2022-09-03T05:16:35;48.00;;;23.92;;
29184;SDS011;16233;47.964;-3.842;2022-09-03T05:18:36;43.15;;;23.10;;
29184;SDS011;16233;47.964;-3.842;2022-09-03T05:20:37;49.38;;;22.98;;
29184;SDS011;16233;47.964;-3.842;2022-09-03T05:22:38;48.60;;;22.80;;
29184;SDS011;16233;47.964;-3.842;2022-09-03T05:24:39;47.53;;;22.60;;
29184;SDS011;16233;47.964;-3.842;2022-09-03T05:26:40;43.85;;;19.83;;
29184;SDS011;16233;47.964;-3.842;2022-09-03T05:28:42;47.45;;;22.20;;
29184;SDS011;16233;47.964;-3.842;2022-09-03T05:30:45;50.55;;;22.70;;
29184;SDS011;16233;47.964;-3.842;2022-09-03T05:32:46;50.13;;;22.63;;
29184;SDS011;16233;47.964;-3.842;2022-09-03T05:34:47;42.80;;;20.58;;
29184;SDS011;16233;47.964;-3.842;2022-09-03T05:36:48;40.20;;;21.00;;
29184;SDS011;16233;47.964;-3.842;2022-09-03T05:38:49;40.97;;;20.02;;
29184;SDS011;16233;47.964;-3.842;2022-09-03T05:40:51;42.80;;;20.75;;
29184;SDS011;16233;47.964;-3.842;2022-09-03T05:42:55;33.35;;;18.52;;
29184;SDS011;16233;47.964;-3.842;2022-09-03T05:44:57;31.50;;;17.85;;
29184;SDS011;16233;47.964;-3.842;2022-09-03T05:46:59;34.35;;;17.73;;
29184;SDS011;16233;47.964;-3.842;2022-09-03T05:49:03;33.17;;;16.48;;
29184;SDS011;16233;47.964;-3.842;2022-09-03T05:51:06;20.17;;;14.25;;
29184;SDS011;16233;47.964;-3.842;2022-09-03T05:53:08;25.45;;;15.70;;
29184;SDS011;16233;47.964;-3.842;2022-09-03T05:55:09;29.02;;;14.10;;
29184;SDS011;16233;47.964;-3.842;2022-09-03T05:57:10;23.30;;;14.98;;
29184;SDS011;16233;47.964;-3.842;2022-09-03T05:59:11;27.48;;;15.52;;
29184;SDS011;16233;47.964;-3.842;2022-09-03T06:01:13;22.80;;;14.63;;
29184;SDS011;16233;47.964;-3.842;2022-09-03T06:03:16;24.15;;;13.45;;
29184;SDS011;16233;47.964;-3.842;2022-09-03T06:05:17;19.80;;;12.05;;
29184;SDS011;16233;47.964;-3.842;2022-09-03T06:07:19;24.85;;;13.20;;
29184;SDS011;16233;47.964;-3.842;2022-09-03T06:09:20;20.73;;;12.40;;
29184;SDS011;16233;47.964;-3.842;2022-09-03T06:11:21;22.02;;;13.23;;
29184;SDS011;16233;47.964;-3.842;2022-09-03T06:13:23;22.38;;;14.25;;
29184;SDS011;16233;47.964;-3.842;2022-09-03T06:15:24;22.92;;;14.65;;
29184;SDS011;16233;47.964;-3.842;2022-09-03T06:17:25;23.80;;;13.85;;
29184;SDS011;16233;47.964;-3.842;2022-09-03T06:19:27;23.95;;;13.90;;
29184;SDS011;16233;47.964;-3.842;2022-09-03T06:21:28;26.95;;;14.38;;
29184;SDS011;16233;47.964;-3.842;2022-09-03T06:23:29;31.90;;;14.82;;
29184;SDS011;16233;47.964;-3.842;2022-09-03T06:25:31;28.65;;;15.23;;
29184;SDS011;16233;47.964;-3.842;2022-09-03T06:27:32;25.80;;;14.65;;
29184;SDS011;16233;47.964;-3.842;2022-09-03T06:29:33;27.92;;;14.90;;
29184;SDS011;16233;47.964;-3.842;2022-09-03T06:31:34;25.33;;;14.52;;
29184;SDS011;16233;47.964;-3.842;2022-09-03T06:33:36;24.02;;;14.60;;
29184;SDS011;16233;47.964;-3.842;2022-09-03T06:35:39;23.08;;;13.07;;
29184;SDS011;16233;47.964;-3.842;2022-09-03T06:37:40;27.25;;;14.18;;
29184;SDS011;16233;47.964;-3.842;2022-09-03T06:39:41;23.35;;;14.55;;
29184;SDS011;16233;47.964;-3.842;2022-09-03T06:41:42;26.63;;;13.85;;
29184;SDS011;16233;47.964;-3.842;2022-09-03T06:43:43;18.55;;;11.93;;
29184;SDS011;16233;47.964;-3.842;2022-09-03T06:45:51;18.65;;;12.10;;
29184;SDS011;16233;47.964;-3.842;2022-09-03T06:47:53;17.75;;;11.65;;
29184;SDS011;16233;47.964;-3.842;2022-09-03T06:49:54;20.83;;;12.55;;
29184;SDS011;16233;47.964;-3.842;2022-09-03T06:51:56;23.30;;;12.30;;
29184;SDS011;16233;47.964;-3.842;2022-09-03T06:53:58;22.20;;;12.35;;
29184;SDS011;16233;47.964;-3.842;2022-09-03T06:56:01;25.60;;;14.07;;
29184;SDS011;16233;47.964;-3.842;2022-09-03T06:58:03;16.45;;;10.95;;
29184;SDS011;16233;47.964;-3.842;2022-09-03T07:00:05;19.83;;;11.13;;
29184;SDS011;16233;47.964;-3.842;2022-09-03T07:02:07;22.17;;;11.20;;
29184;SDS011;16233;47.964;-3.842;2022-09-03T07:04:08;19.52;;;11.38;;
29184;SDS011;16233;47.964;-3.842;2022-09-03T07:06:09;15.88;;;10.90;;
29184;SDS011;16233;47.964;-3.842;2022-09-03T07:08:13;19.80;;;10.38;;
29184;SDS011;16233;47.964;-3.842;2022-09-03T07:10:14;12.98;;;10.00;;
29184;SDS011;16233;47.964;-3.842;2022-09-03T07:12:15;13.07;;;8.93;;
29184;SDS011;16233;47.964;-3.842;2022-09-03T07:14:17;16.38;;;9.23;;
29184;SDS011;16233;47.964;-3.842;2022-09-03T07:16:19;12.27;;;9.00;;
29184;SDS011;16233;47.964;-3.842;2022-09-03T07:18:21;12.43;;;8.57;;
29184;SDS011;16233;47.964;-3.842;2022-09-03T07:20:22;14.02;;;8.38;;
29184;SDS011;16233;47.964;-3.842;2022-09-03T07:22:23;14.88;;;8.40;;
29184;SDS011;16233;47.964;-3.842;2022-09-03T07:24:25;11.77;;;8.00;;
29184;SDS011;16233;47.964;-3.842;2022-09-03T07:26:27;17.63;;;8.35;;
29184;SDS011;16233;47.964;-3.842;2022-09-03T07:28:29;10.48;;;6.30;;
29184;SDS011;16233;47.964;-3.842;2022-09-03T07:30:31;13.07;;;6.60;;
29184;SDS011;16233;47.964;-3.842;2022-09-03T07:32:32;12.25;;;5.97;;
29184;SDS011;16233;47.964;-3.842;2022-09-03T07:34:33;12.93;;;6.97;;
29184;SDS011;16233;47.964;-3.842;2022-09-03T07:36:35;15.65;;;7.63;;
29184;SDS011;16233;47.964;-3.842;2022-09-03T07:38:37;9.13;;;5.75;;
29184;SDS011;16233;47.964;-3.842;2022-09-03T07:40:40;9.02;;;6.15;;
29184;SDS011;16233;47.964;-3.842;2022-09-03T07:42:41;9.88;;;6.03;;
29184;SDS011;16233;47.964;-3.842;2022-09-03T07:44:42;8.77;;;5.80;;
29184;SDS011;16233;47.964;-3.842;2022-09-03T07:46:43;10.07;;;5.82;;
29184;SDS011;16233;47.964;-3.842;2022-09-03T07:48:45;12.75;;;5.40;;
29184;SDS011;16233;47.964;-3.842;2022-09-03T07:50:46;8.15;;;5.40;;
29184;SDS011;16233;47.964;-3.842;2022-09-03T07:52:47;4.82;;;4.20;;
29184;SDS011;16233;47.964;-3.842;2022-09-03T07:54:48;9.05;;;3.88;;
29184;SDS011;16233;47.964;-3.842;2022-09-03T07:56:51;5.95;;;3.75;;
29184;SDS011;16233;47.964;-3.842;2022-09-03T07:58:52;4.13;;;2.97;;
29184;SDS011;16233;47.964;-3.842;2022-09-03T08:00:53;5.13;;;3.20;;
29184;SDS011;16233;47.964;-3.842;2022-09-03T08:02:54;7.07;;;3.25;;
29184;SDS011;16233;47.964;-3.842;2022-09-03T08:04:56;7.82;;;2.90;;
29184;SDS011;16233;47.964;-3.842;2022-09-03T08:06:57;4.88;;;2.70;;
29184;SDS011;16233;47.964;-3.842;2022-09-03T08:08:58;6.90;;;2.58;;
29184;SDS011;16233;47.964;-3.842;2022-09-03T08:11:04;4.32;;;2.20;;
29184;SDS011;16233;47.964;-3.842;2022-09-03T08:13:07;4.82;;;2.35;;
29184;SDS011;16233;47.964;-3.842;2022-09-03T08:15:08;6.72;;;2.10;;
29184;SDS011;16233;47.964;-3.842;2022-09-03T08:17:09;7.40;;;2.05;;
29184;SDS011;16233;47.964;-3.842;2022-09-03T08:19:10;5.15;;;1.60;;
29184;SDS011;16233;47.964;-3.842;2022-09-03T08:21:12;2.45;;;1.40;;
29184;SDS011;16233;47.964;-3.842;2022-09-03T08:23:15;4.45;;;1.20;;
29184;SDS011;16233;47.964;-3.842;2022-09-03T08:25:16;2.63;;;1.92;;
29184;SDS011;16233;47.964;-3.842;2022-09-03T08:27:17;4.03;;;1.65;;
29184;SDS011;16233;47.964;-3.842;2022-09-03T08:29:20;2.03;;;1.40;;
29184;SDS011;16233;47.964;-3.842;2022-09-03T08:31:21;2.78;;;1.52;;
29184;SDS011;16233;47.964;-3.842;2022-09-03T08:33:23;5.78;;;1.88;;
29184;SDS011;16233;47.964;-3.842;2022-09-03T08:35:24;2.47;;;1.33;;
29184;SDS011;16233;47.964;-3.842;2022-09-03T08:37:25;4.35;;;1.23;;
29184;SDS011;16233;47.964;-3.842;2022-09-03T08:39:26;2.45;;;1.20;;
29184;SDS011;16233;47.964;-3.842;2022-09-03T08:41:27;2.55;;;1.35;;
29184;SDS011;16233;47.964;-3.842;2022-09-03T08:43:38;10.65;;;2.55;;
29184;SDS011;16233;47.964;-3.842;2022-09-03T08:45:57;3.50;;;1.25;;
29184;SDS011;16233;47.964;-3.842;2022-09-03T08:48:00;1.17;;;0.98;;
29184;SDS011;16233;47.964;-3.842;2022-09-03T08:50:06;2.88;;;1.42;;
29184;SDS011;16233;47.964;-3.842;2022-09-03T08:52:17;2.28;;;1.42;;
29184;SDS011;16233;47.964;-3.842;2022-09-03T08:54:24;3.03;;;1.38;;
29184;SDS011;16233;47.964;-3.842;2022-09-03T08:56:29;4.95;;;1.50;;
29184;SDS011;16233;47.964;-3.842;2022-09-03T08:58:32;2.70;;;1.40;;
29184;SDS011;16233;47.964;-3.842;2022-09-03T09:00:38;6.43;;;1.83;;
29184;SDS011;16233;47.964;-3.842;2022-09-03T09:02:54;3.13;;;1.40;;
29184;SDS011;16233;47.964;-3.842;2022-09-03T09:05:08;6.13;;;2.03;;
29184;SDS011;16233;47.964;-3.842;2022-09-03T09:07:13;3.45;;;1.35;;
29184;SDS011;16233;47.964;-3.842;2022-09-03T09:09:23;2.85;;;2.20;;
29184;SDS011;16233;47.964;-3.842;2022-09-03T09:11:33;2.05;;;1.23;;
29184;SDS011;16233;47.964;-3.842;2022-09-03T09:13:55;3.60;;;1.80;;
29184;SDS011;16233;47.964;-3.842;2022-09-03T09:16:02;4.97;;;1.80;;
29184;SDS011;16233;47.964;-3.842;2022-09-03T09:18:12;8.48;;;1.70;;
29184;SDS011;16233;47.964;-3.842;2022-09-03T09:20:23;4.18;;;1.40;;
29184;SDS011;16233;47.964;-3.842;2022-09-03T09:22:32;5.15;;;1.30;;
29184;SDS011;16233;47.964;-3.842;2022-09-03T09:24:38;3.67;;;1.40;;
29184;SDS011;16233;47.964;-3.842;2022-09-03T09:26:41;3.47;;;1.40;;
29184;SDS011;16233;47.964;-3.842;2022-09-03T09:28:43;3.83;;;1.40;;
29184;SDS011;16233;47.964;-3.842;2022-09-03T09:30:46;2.92;;;1.60;;
29184;SDS011;16233;47.964;-3.842;2022-09-03T09:32:48;2.10;;;1.45;;
29184;SDS011;16233;47.964;-3.842;2022-09-03T09:34:51;3.35;;;1.48;;
29184;SDS011;16233;47.964;-3.842;2022-09-03T09:36:53;3.70;;;1.70;;
29184;SDS011;16233;47.964;-3.842;2022-09-03T09:38:55;2.83;;;1.30;;
29184;SDS011;16233;47.964;-3.842;2022-09-03T09:41:07;4.68;;;1.88;;
29184;SDS011;16233;47.964;-3.842;2022-09-03T09:43:10;4.47;;;1.48;;
29184;SDS011;16233;47.964;-3.842;2022-09-03T09:45:13;2.55;;;1.30;;
29184;SDS011;16233;47.964;-3.842;2022-09-03T09:47:15;5.45;;;1.80;;
29184;SDS011;16233;47.964;-3.842;2022-09-03T09:49:28;2.75;;;1.30;;
29184;SDS011;16233;47.964;-3.842;2022-09-03T09:51:32;4.88;;;1.60;;
29184;SDS011;16233;47.964;-3.842;2022-09-03T09:53:33;2.47;;;1.40;;
29184;SDS011;16233;47.964;-3.842;2022-09-03T09:55:34;3.40;;;1.55;;
29184;SDS011;16233;47.964;-3.842;2022-09-03T09:57:47;2.88;;;1.55;;
29184;SDS011;16233;47.964;-3.842;2022-09-03T10:00:00;4.47;;;1.70;;
29184;SDS011;16233;47.964;-3.842;2022-09-03T10:02:12;2.55;;;1.63;;
29184;SDS011;16233;47.964;-3.842;2022-09-03T10:04:20;2.40;;;1.63;;
29184;SDS011;16233;47.964;-3.842;2022-09-03T10:06:24;5.07;;;2.10;;
29184;SDS011;16233;47.964;-3.842;2022-09-03T10:08:28;5.13;;;1.70;;
29184;SDS011;16233;47.964;-3.842;2022-09-03T10:10:29;7.85;;;2.17;;
29184;SDS011;16233;47.964;-3.842;2022-09-03T10:12:35;1.70;;;1.60;;
29184;SDS011;16233;47.964;-3.842;2022-09-03T10:14:42;3.80;;;1.60;;
29184;SDS011;16233;47.964;-3.842;2022-09-03T10:16:47;3.90;;;1.73;;
29184;SDS011;16233;47.964;-3.842;2022-09-03T10:18:54;2.83;;;1.83;;
29184;SDS011;16233;47.964;-3.842;2022-09-03T10:21:01;3.17;;;1.75;;
29184;SDS011;16233;47.964;-3.842;2022-09-03T10:23:09;4.28;;;1.58;;
29184;SDS011;16233;47.964;-3.842;2022-09-03T10:25:16;7.68;;;1.80;;
29184;SDS011;16233;47.964;-3.842;2022-09-03T10:27:18;2.53;;;1.40;;
29184;SDS011;16233;47.964;-3.842;2022-09-03T10:29:20;4.65;;;1.90;;
29184;SDS011;16233;47.964;-3.842;2022-09-03T10:33:53;3.47;;;1.85;;
29184;SDS011;16233;47.964;-3.842;2022-09-03T10:36:02;1.42;;;1.25;;
29184;SDS011;16233;47.964;-3.842;2022-09-03T10:38:09;1.60;;;1.50;;
29184;SDS011;16233;47.964;-3.842;2022-09-03T10:40:20;13.57;;;1.80;;
29184;SDS011;16233;47.964;-3.842;2022-09-03T10:42:34;1.58;;;1.45;;
29184;SDS011;16233;47.964;-3.842;2022-09-03T10:44:47;2.63;;;1.60;;
29184;SDS011;16233;47.964;-3.842;2022-09-03T10:47:00;1.55;;;1.45;;
29184;SDS011;16233;47.964;-3.842;2022-09-03T10:49:25;1.73;;;1.30;;
29184;SDS011;16233;47.964;-3.842;2022-09-03T10:51:42;2.78;;;1.92;;
29184;SDS011;16233;47.964;-3.842;2022-09-03T10:54:00;4.75;;;1.67;;
29184;SDS011;16233;47.964;-3.842;2022-09-03T10:56:24;2.95;;;1.58;;
29184;SDS011;16233;47.964;-3.842;2022-09-03T10:58:44;6.85;;;2.42;;
29184;SDS011;16233;47.964;-3.842;2022-09-03T11:00:57;2.30;;;1.58;;
29184;SDS011;16233;47.964;-3.842;2022-09-03T11:03:07;3.45;;;1.45;;
29184;SDS011;16233;47.964;-3.842;2022-09-03T11:05:28;4.18;;;1.38;;
29184;SDS011;16233;47.964;-3.842;2022-09-03T11:07:33;2.22;;;1.35;;
29184;SDS011;16233;47.964;-3.842;2022-09-03T11:09:36;2.95;;;1.50;;
29184;SDS011;16233;47.964;-3.842;2022-09-03T11:11:43;3.13;;;1.30;;
29184;SDS011;16233;47.964;-3.842;2022-09-03T11:13:49;4.50;;;1.75;;
29184;SDS011;16233;47.964;-3.842;2022-09-03T11:15:54;2.72;;;1.90;;
29184;SDS011;16233;47.964;-3.842;2022-09-03T11:17:59;2.15;;;1.58;;
29184;SDS011;16233;47.964;-3.842;2022-09-03T11:20:10;1.75;;;1.63;;
29184;SDS011;16233;47.964;-3.842;2022-09-03T11:22:15;5.05;;;2.00;;
29184;SDS011;16233;47.964;-3.842;2022-09-03T11:24:20;3.78;;;1.80;;
29184;SDS011;16233;47.964;-3.842;2022-09-03T11:26:22;5.05;;;1.50;;
29184;SDS011;16233;47.964;-3.842;2022-09-03T11:28:29;3.55;;;1.50;;
29184;SDS011;16233;47.964;-3.842;2022-09-03T11:30:39;3.03;;;1.73;;
29184;SDS011;16233;47.964;-3.842;2022-09-03T11:32:52;3.85;;;1.48;;
29184;SDS011;16233;47.964;-3.842;2022-09-03T11:34:56;4.45;;;1.48;;
29184;SDS011;16233;47.964;-3.842;2022-09-03T11:37:03;2.47;;;1.48;;
29184;SDS011;16233;47.964;-3.842;2022-09-03T11:39:13;7.53;;;1.60;;
29184;SDS011;16233;47.964;-3.842;2022-09-03T11:41:23;3.17;;;1.90;;
29184;SDS011;16233;47.964;-3.842;2022-09-03T11:43:29;4.22;;;1.52;;
29184;SDS011;16233;47.964;-3.842;2022-09-03T11:45:34;2.35;;;1.67;;
29184;SDS011;16233;47.964;-3.842;2022-09-03T11:47:37;2.35;;;1.60;;
29184;SDS011;16233;47.964;-3.842;2022-09-03T11:49:43;6.13;;;1.77;;
29184;SDS011;16233;47.964;-3.842;2022-09-03T11:51:54;1.65;;;1.38;;
29184;SDS011;16233;47.964;-3.842;2022-09-03T11:53:58;2.63;;;1.48;;
29184;SDS011;16233;47.964;-3.842;2022-09-03T11:56:11;3.28;;;1.50;;
29184;SDS011;16233;47.964;-3.842;2022-09-03T11:58:18;6.95;;;1.58;;
29184;SDS011;16233;47.964;-3.842;2022-09-03T12:00:25;3.45;;;1.90;;
29184;SDS011;16233;47.964;-3.842;2022-09-03T12:02:26;3.88;;;1.50;;
29184;SDS011;16233;47.964;-3.842;2022-09-03T12:04:34;2.72;;;1.60;;
29184;SDS011;16233;47.964;-3.842;2022-09-03T12:07:05;4.22;;;1.70;;
29184;SDS011;16233;47.964;-3.842;2022-09-03T12:12:06;3.17;;;2.10;;
29184;SDS011;16233;47.964;-3.842;2022-09-03T12:14:24;2.42;;;1.55;;
29184;SDS011;16233;47.964;-3.842;2022-09-03T12:16:34;2.33;;;1.70;;